Yahata Maru — JL6477 — position and weather

sailwx.info

Track history (hours):
 
Tides and Currents Weather Stations Pressure Air Temp Water Temp Dewpoint Dewpoint Depression Visibility Wind Speed Wind Dir Waves Ship Positions

Yahata Maru

Last reported at 2014-Dec-19 14:15 UTC. Time now 2014-Dec-20 00:50 UTC.
Position N 34°07' E 134°46'.

Length 149 m; draft 4.7 m.

Type: Other ship. MMSI: 431400594.

Date/timePositionNaut miles runAvg speedWind from/ knotsBaromVisibWave heightAir tempDewpointWater temp
2014-Dec-19 14:15N 34°07' E 134°46'26 0.7
2014-Dec-18 00:24N 34°32' E 134°44'7 8.3
2014-Dec-17 23:32N 34°35' E 134°52'8 8.3
2014-Dec-17 22:33N 34°37' E 135°02'9 9.2
2014-Dec-17 21:33N 34°36' E 135°13'8 8.4
2014-Dec-17 20:33N 34°42' E 135°20'1 1.1
2014-Dec-17 19:28N 34°43' E 135°21'0 0.0
2014-Dec-17 18:28N 34°43' E 135°21'0 0.0
2014-Dec-17 17:28N 34°43' E 135°21'0 0.0
2014-Dec-17 16:22N 34°43' E 135°21'0 0.0
2014-Dec-17 15:22N 34°43' E 135°21'0 0.0
2014-Dec-17 14:22N 34°43' E 135°21'0 0.0
2014-Dec-17 13:16N 34°43' E 135°21'0 0.0
2014-Dec-17 12:22N 34°43' E 135°21'0 0.0
2014-Dec-17 11:22N 34°43' E 135°21'0 0.0
2014-Dec-17 10:28N 34°43' E 135°21'0 0.0
2014-Dec-17 09:22N 34°43' E 135°21'0 0.0
2014-Dec-17 08:16N 34°43' E 135°21'0 0.0
2014-Dec-17 07:31N 34°43' E 135°21'0 0.0
2014-Dec-17 06:31N 34°43' E 135°21'0 0.0
2014-Dec-17 05:31N 34°43' E 135°21'0 0.0
2014-Dec-17 04:25N 34°43' E 135°21'0 0.0
2014-Dec-17 03:31N 34°43' E 135°21'0 0.0
2014-Dec-17 02:31N 34°43' E 135°21'0 0.0
2014-Dec-17 01:19N 34°43' E 135°21'0 0.0
2014-Dec-17 00:31N 34°43' E 135°21'0 0.0
2014-Dec-16 23:31N 34°43' E 135°21'0 0.0
2014-Dec-16 22:31N 34°43' E 135°21'0 0.0
2014-Dec-16 21:25N 34°43' E 135°21'0 0.0
2014-Dec-16 20:31N 34°43' E 135°21'0 0.0
2014-Dec-16 19:25N 34°43' E 135°21'0 0.0
2014-Dec-16 18:31N 34°43' E 135°21'0 0.0
2014-Dec-16 17:31N 34°43' E 135°21'0 0.0
2014-Dec-16 16:31N 34°43' E 135°21'0 0.0
2014-Dec-16 15:31N 34°43' E 135°21'0 0.0
2014-Dec-16 14:25N 34°43' E 135°21'0 0.0
2014-Dec-16 13:31N 34°43' E 135°21'0 0.0
2014-Dec-16 12:19N 34°43' E 135°21'0 0.0
2014-Dec-16 11:31N 34°43' E 135°21'0 0.0
2014-Dec-16 10:31N 34°43' E 135°21'0 0.0
2014-Dec-16 09:31N 34°43' E 135°21'0 0.0
2014-Dec-16 08:31N 34°43' E 135°21'0 0.0
2014-Dec-16 07:19N 34°43' E 135°21'0 0.0
2014-Dec-16 06:31N 34°43' E 135°21'2 2.0
2014-Dec-16 05:33N 34°41' E 135°21'7 6.7
2014-Dec-16 04:32N 34°35' E 135°25'0 0.0
2014-Dec-16 00:15N 34°35' E 135°25'4 5.7
2014-Dec-15 23:32N 34°36' E 135°20'9 9.2
2014-Dec-15 22:33N 34°30' E 135°11'9 8.5
2014-Dec-15 21:33N 34°23' E 135°05'9 9.1
2014-Dec-15 20:33N 34°16' E 134°59'1010.2
2014-Dec-15 19:33N 34°06' E 135°00'1010.3
2014-Dec-15 18:33N 33°55' E 135°01'249 5.2
2014-Dec-13 18:15N 35°28' E 139°43'0 0.0
2014-Dec-13 17:33N 35°28' E 139°43'0 0.0
2014-Dec-13 16:33N 35°28' E 139°43'0 0.0
2014-Dec-13 15:33N 35°28' E 139°43'0 0.0
2014-Dec-13 14:33N 35°28' E 139°43'0 0.0
2014-Dec-13 13:33N 35°28' E 139°43'0 0.0
2014-Dec-13 12:33N 35°28' E 139°43'0 0.0
2014-Dec-13 11:33N 35°28' E 139°43'0 0.0
2014-Dec-13 10:33N 35°28' E 139°43'0 0.0
2014-Dec-13 09:33N 35°28' E 139°43'0 0.0
2014-Dec-13 08:33N 35°28' E 139°43'0 0.0
2014-Dec-13 07:33N 35°28' E 139°43'0 0.0
2014-Dec-13 06:33N 35°28' E 139°43'0 0.0
2014-Dec-13 05:33N 35°28' E 139°43'0 0.0
2014-Dec-13 04:33N 35°28' E 139°43'0 0.0
2014-Dec-13 03:33N 35°28' E 139°43'0 0.0
2014-Dec-13 02:33N 35°28' E 139°43'0 0.0
2014-Dec-13 01:33N 35°28' E 139°43'0 0.2
2014-Dec-13 00:33N 35°28' E 139°43'6 6.1
2014-Dec-12 23:33N 35°29' E 139°50'5 0.1
2014-Dec-11 14:31N 35°31' E 139°56'9 9.0
2014-Dec-11 13:33N 35°27' E 139°46'3 2.8
2014-Dec-11 12:31N 35°28' E 139°43'2 2.2
2014-Dec-11 11:33N 35°27' E 139°45'4 3.0
2014-Dec-11 10:10N 35°26' E 139°50'0 0.0
2014-Dec-11 08:31N 35°26' E 139°50'0 0.1
2014-Dec-11 07:31N 35°26' E 139°50'0 0.1
2014-Dec-11 06:33N 35°26' E 139°50'0 0.1
2014-Dec-11 05:33N 35°26' E 139°50'0 0.1
2014-Dec-11 04:33N 35°26' E 139°50'0 0.0
2014-Dec-11 03:23N 35°26' E 139°50'0 0.4
2014-Dec-11 02:33N 35°26' E 139°49'8 8.5
2014-Dec-11 01:33N 35°19' E 139°44'9 8.7
2014-Dec-11 00:30N 35°10' E 139°46'  
Track history (hours):
 
Tides and Currents Weather Stations Pressure Air Temp Water Temp Dewpoint Dewpoint Depression Visibility Wind Speed Wind Dir Waves Ship Positions

Yahata Maru

Last reported at 2014-Dec-19 14:15 UTC. Time now 2014-Dec-20 00:50 UTC.
Position N 34°07' E 134°46'.

Length 149 m; draft 4.7 m.

Type: Other ship. MMSI: 431400594.

Date/timePositionNaut miles runAvg speedWind from/ knotsBaromVisibWave heightAir tempDewpointWater temp
2014-Dec-19 14:15N 34°07' E 134°46'26 0.7
2014-Dec-18 00:24N 34°32' E 134°44'7 8.3
2014-Dec-17 23:32N 34°35' E 134°52'8 8.3
2014-Dec-17 22:33N 34°37' E 135°02'9 9.2
2014-Dec-17 21:33N 34°36' E 135°13'8 8.4
2014-Dec-17 20:33N 34°42' E 135°20'1 1.1
2014-Dec-17 19:28N 34°43' E 135°21'0 0.0
2014-Dec-17 18:28N 34°43' E 135°21'0 0.0
2014-Dec-17 17:28N 34°43' E 135°21'0 0.0
2014-Dec-17 16:22N 34°43' E 135°21'0 0.0
2014-Dec-17 15:22N 34°43' E 135°21'0 0.0
2014-Dec-17 14:22N 34°43' E 135°21'0 0.0
2014-Dec-17 13:16N 34°43' E 135°21'0 0.0
2014-Dec-17 12:22N 34°43' E 135°21'0 0.0
2014-Dec-17 11:22N 34°43' E 135°21'0 0.0
2014-Dec-17 10:28N 34°43' E 135°21'0 0.0
2014-Dec-17 09:22N 34°43' E 135°21'0 0.0
2014-Dec-17 08:16N 34°43' E 135°21'0 0.0
2014-Dec-17 07:31N 34°43' E 135°21'0 0.0
2014-Dec-17 06:31N 34°43' E 135°21'0 0.0
2014-Dec-17 05:31N 34°43' E 135°21'0 0.0
2014-Dec-17 04:25N 34°43' E 135°21'0 0.0
2014-Dec-17 03:31N 34°43' E 135°21'0 0.0
2014-Dec-17 02:31N 34°43' E 135°21'0 0.0
2014-Dec-17 01:19N 34°43' E 135°21'0 0.0
2014-Dec-17 00:31N 34°43' E 135°21'0 0.0
2014-Dec-16 23:31N 34°43' E 135°21'0 0.0
2014-Dec-16 22:31N 34°43' E 135°21'0 0.0
2014-Dec-16 21:25N 34°43' E 135°21'0 0.0
2014-Dec-16 20:31N 34°43' E 135°21'0 0.0
2014-Dec-16 19:25N 34°43' E 135°21'0 0.0
2014-Dec-16 18:31N 34°43' E 135°21'0 0.0
2014-Dec-16 17:31N 34°43' E 135°21'0 0.0
2014-Dec-16 16:31N 34°43' E 135°21'0 0.0
2014-Dec-16 15:31N 34°43' E 135°21'0 0.0
2014-Dec-16 14:25N 34°43' E 135°21'0 0.0
2014-Dec-16 13:31N 34°43' E 135°21'0 0.0
2014-Dec-16 12:19N 34°43' E 135°21'0 0.0
2014-Dec-16 11:31N 34°43' E 135°21'0 0.0
2014-Dec-16 10:31N 34°43' E 135°21'0 0.0
2014-Dec-16 09:31N 34°43' E 135°21'0 0.0
2014-Dec-16 08:31N 34°43' E 135°21'0 0.0
2014-Dec-16 07:19N 34°43' E 135°21'0 0.0
2014-Dec-16 06:31N 34°43' E 135°21'2 2.0
2014-Dec-16 05:33N 34°41' E 135°21'7 6.7
2014-Dec-16 04:32N 34°35' E 135°25'0 0.0
2014-Dec-16 00:15N 34°35' E 135°25'4 5.7
2014-Dec-15 23:32N 34°36' E 135°20'9 9.2
2014-Dec-15 22:33N 34°30' E 135°11'9 8.5
2014-Dec-15 21:33N 34°23' E 135°05'9 9.1
2014-Dec-15 20:33N 34°16' E 134°59'1010.2
2014-Dec-15 19:33N 34°06' E 135°00'1010.3
2014-Dec-15 18:33N 33°55' E 135°01'249 5.2
2014-Dec-13 18:15N 35°28' E 139°43'0 0.0
2014-Dec-13 17:33N 35°28' E 139°43'0 0.0
2014-Dec-13 16:33N 35°28' E 139°43'0 0.0
2014-Dec-13 15:33N 35°28' E 139°43'0 0.0
2014-Dec-13 14:33N 35°28' E 139°43'0 0.0
2014-Dec-13 13:33N 35°28' E 139°43'0 0.0
2014-Dec-13 12:33N 35°28' E 139°43'0 0.0
2014-Dec-13 11:33N 35°28' E 139°43'0 0.0
2014-Dec-13 10:33N 35°28' E 139°43'0 0.0
2014-Dec-13 09:33N 35°28' E 139°43'0 0.0
2014-Dec-13 08:33N 35°28' E 139°43'0 0.0
2014-Dec-13 07:33N 35°28' E 139°43'0 0.0
2014-Dec-13 06:33N 35°28' E 139°43'0 0.0
2014-Dec-13 05:33N 35°28' E 139°43'0 0.0
2014-Dec-13 04:33N 35°28' E 139°43'0 0.0
2014-Dec-13 03:33N 35°28' E 139°43'0 0.0
2014-Dec-13 02:33N 35°28' E 139°43'0 0.0
2014-Dec-13 01:33N 35°28' E 139°43'0 0.2
2014-Dec-13 00:33N 35°28' E 139°43'6 6.1
2014-Dec-12 23:33N 35°29' E 139°50'5 0.1
2014-Dec-11 14:31N 35°31' E 139°56'9 9.0
2014-Dec-11 13:33N 35°27' E 139°46'3 2.8
2014-Dec-11 12:31N 35°28' E 139°43'2 2.2
2014-Dec-11 11:33N 35°27' E 139°45'4 3.0
2014-Dec-11 10:10N 35°26' E 139°50'0 0.0
2014-Dec-11 08:31N 35°26' E 139°50'0 0.1
2014-Dec-11 07:31N 35°26' E 139°50'0 0.1
2014-Dec-11 06:33N 35°26' E 139°50'0 0.1
2014-Dec-11 05:33N 35°26' E 139°50'0 0.1
2014-Dec-11 04:33N 35°26' E 139°50'0 0.0
2014-Dec-11 03:23N 35°26' E 139°50'0 0.4
2014-Dec-11 02:33N 35°26' E 139°49'8 8.5
2014-Dec-11 01:33N 35°19' E 139°44'9 8.7
2014-Dec-11 00:30N 35°10' E 139°46'  

Dump ship's entire track history